METAR AND TAF INFORMATION
METAR FOR LIEA
ADDS - METARS form results

(1104 UTC 27 October 2021)
Data provider http://aviationweather.gov/metar/data/
 
METAR text: LIEA 271050Z 19004KT 160V230 9999 FEW035 21/11 Q1021
Conditions at: LIEA (ALGHERO , IT) observed 1050 UTC 27 October 2021
Temperature: 21.0°C (70°F)
Dewpoint: 11.0°C (52°F) [RH = 53%]
Pressure (altimeter): 30.15 inches Hg (1021.0 mb)
Winds: from the S (190 degrees) at 5 MPH (4 knots; 2.1 m/s)
Visibility: 6 or more miles (10+ km)
Ceiling: at least 12,000 feet AGL
Clouds: few clouds at 3500 feet AGL
Weather: no significant weather observed at this time

METAR text: LIEA 271020Z 13005KT 090V190 CAVOK 22/11 Q1021
Conditions at: LIEA (ALGHERO , IT) observed 1020 UTC 27 October 2021
Temperature: 22.0°C (72°F)
Dewpoint: 11.0°C (52°F) [RH = 50%]
Pressure (altimeter): 30.15 inches Hg (1021.0 mb)
Winds: from the SE (130 degrees) at 6 MPH (5 knots; 2.6 m/s)
Visibility: 6 or more miles (10+ km)
Ceiling: ceiling and visibility are OK
Clouds: unknown
Weather: no significant weather observed at this time

Forecast for: LIEA (ALGHERO , IT)
Text: TAF LIEA 270500Z 2706/2806 VRB05KT CAVOK
Forecast period: 0600 to 0800 UTC 27 October 2021
Forecast type: FROM: standard forecast or significant change
Winds: variable direction winds at 6 MPH (5 knots; 2.6 m/s)
Visibility: 6 or more miles (10+ km)
Ceiling: unknown
Clouds: missing
Weather: NSW  (no significant weather)
Text: BECMG 2708/2710 01012KT
Forecast period: 0800 UTC 27 October 2021 to 0600 UTC 28 October 2021
Forecast type: BECOMING: Conditions expected to become as follows by 1000 UTC 27 October 2021
Winds: from the N (10 degrees) at 14 MPH (12 knots; 6.2 m/s)
Visibility: 6 or more miles (10+ km)
Ceiling: unknown
Clouds: missing
Weather: NSW  (no significant weather)

 AIRPORT MAP

 RUNWAY INFORMATION
Runway 02 Runway length 9843 ft Runway width 148 ft
Runway elevation 69 ft Runway displaced threshold 0 ft Runway heading 25
Runway 20 Runway length 9843 ft Runway width 148 ft
Runway elevation 87 ft Runway displaced threshold 0 ft Runway heading 205

 AIRPORT FREQUENCIES
Type APP Name APP Frequency 128.55 MHZ
Type ATIS Name ATIS Frequency 125.025 MHZ
Type TWR Name TWR Frequency 118.85 MHZ

 AIRPORT NEAR NAVIGATION AIDS
Type TACAN Name Alghero Frequency 109300 KHZ
Type VORTAC Name Alghero Frequency 113800 KHZ
Type NDB Name Alghero Frequency 382 KHZ